createdAt,value
2018-08-03T00:00:30.081Z,50.70
2018-08-03T00:01:46.761Z,50.80
2018-08-03T00:03:03.544Z,50.50
2018-08-03T00:04:21.123Z,50.10
2018-08-03T00:05:37.978Z,50.40
2018-08-03T00:06:55.560Z,50.40
2018-08-03T00:08:12.289Z,50.50
2018-08-03T00:09:28.939Z,50.50
2018-08-03T00:10:45.835Z,50.60
2018-08-03T00:12:02.700Z,50.60
2018-08-03T00:13:19.388Z,50.50
2018-08-03T00:14:36.198Z,50.70
2018-08-03T00:15:53.181Z,50.80
2018-08-03T00:17:09.957Z,50.90
2018-08-03T00:18:26.768Z,50.90
2018-08-03T00:19:43.913Z,50.90
2018-08-03T00:21:00.544Z,50.90
2018-08-03T00:22:17.601Z,50.90
2018-08-03T00:23:34.961Z,50.80
2018-08-03T00:24:52.251Z,51.50
2018-08-03T00:26:10.152Z,50.90
2018-08-03T00:27:27.688Z,51.00
2018-08-03T00:28:44.320Z,50.90
2018-08-03T00:30:01.335Z,51.00
2018-08-03T00:31:19.396Z,51.00
2018-08-03T00:32:36.451Z,51.60
2018-08-03T00:33:53.415Z,51.10
2018-08-03T00:35:10.118Z,51.10
2018-08-03T00:36:27.149Z,51.10
2018-08-03T00:39:01.482Z,51.20
2018-08-03T00:40:18.240Z,51.20
2018-08-03T00:41:35.149Z,51.30
2018-08-03T00:42:52.137Z,51.30
2018-08-03T00:44:09.785Z,51.40
2018-08-03T00:45:26.334Z,51.40
2018-08-03T00:46:43.172Z,51.50
2018-08-03T00:47:59.933Z,51.50
2018-08-03T00:49:16.895Z,51.50
2018-08-03T00:50:33.579Z,51.60
2018-08-03T00:51:50.610Z,51.60
2018-08-03T00:53:08.081Z,51.50
2018-08-03T00:54:25.026Z,51.60
2018-08-03T00:55:41.665Z,51.60
2018-08-03T00:56:58.486Z,51.60
2018-08-03T00:58:15.553Z,51.70
2018-08-03T00:59:32.497Z,51.60
2018-08-03T01:00:49.152Z,51.70
2018-08-03T01:02:06.109Z,51.70
2018-08-03T01:03:22.833Z,51.80
2018-08-03T01:04:39.685Z,51.80
2018-08-03T01:05:56.408Z,51.80
2018-08-03T01:07:13.418Z,51.80
2018-08-03T01:08:30.140Z,51.90
2018-08-03T01:09:47.042Z,52.00
2018-08-03T01:11:04.087Z,52.10
2018-08-03T01:12:20.639Z,52.50
2018-08-03T01:13:37.441Z,52.10
2018-08-03T01:14:54.412Z,52.10
2018-08-03T01:16:11.100Z,52.10
2018-08-03T01:17:27.797Z,52.10
2018-08-03T01:18:44.752Z,52.20
2018-08-03T01:20:01.656Z,52.20
2018-08-03T01:21:18.357Z,52.20
2018-08-03T01:22:35.244Z,52.30
2018-08-03T01:23:52.072Z,52.90
2018-08-03T01:25:09.099Z,52.20
2018-08-03T01:26:25.813Z,52.20
2018-08-03T01:27:42.372Z,52.20
2018-08-03T01:28:59.618Z,52.20
2018-08-03T01:30:17.168Z,52.20
2018-08-03T01:31:34.178Z,52.90
2018-08-03T01:32:50.889Z,52.20
2018-08-03T01:34:08.520Z,52.20
2018-08-03T01:35:25.328Z,52.30
2018-08-03T01:36:42.074Z,52.40
2018-08-03T01:37:59.131Z,52.30
2018-08-03T01:39:15.924Z,52.40
2018-08-03T01:40:33.429Z,52.60
2018-08-03T01:41:49.948Z,53.20
2018-08-03T01:43:06.951Z,53.30
2018-08-03T01:44:23.628Z,52.70
2018-08-03T01:45:40.285Z,52.10
2018-08-03T01:46:57.264Z,52.80
2018-08-03T01:48:13.985Z,52.80
2018-08-03T01:49:30.657Z,52.80
2018-08-03T01:50:47.704Z,52.90
2018-08-03T01:52:04.575Z,53.60
2018-08-03T01:53:21.392Z,53.00
2018-08-03T01:54:38.502Z,53.00
2018-08-03T01:55:55.220Z,53.00
2018-08-03T01:57:12.016Z,53.00
2018-08-03T01:58:29.038Z,53.00
2018-08-03T01:59:45.595Z,53.10
2018-08-03T02:01:02.704Z,52.60
2018-08-03T02:02:19.188Z,53.10
2018-08-03T02:03:36.200Z,53.10
2018-08-03T02:04:52.907Z,53.20
2018-08-03T02:06:10.011Z,53.20
2018-08-03T02:07:26.980Z,53.20
2018-08-03T02:08:43.753Z,53.20
2018-08-03T02:10:00.637Z,52.70
2018-08-03T02:11:17.631Z,53.30
2018-08-03T02:12:34.472Z,53.20
2018-08-03T02:13:51.631Z,53.30
2018-08-03T02:15:09.455Z,53.30
2018-08-03T02:16:26.868Z,53.20
2018-08-03T02:17:44.054Z,52.90
2018-08-03T02:19:01.774Z,53.30
2018-08-03T02:20:18.703Z,53.40
2018-08-03T02:21:35.385Z,53.30
2018-08-03T02:22:52.405Z,53.40
2018-08-03T02:24:09.248Z,53.50
2018-08-03T02:25:26.868Z,53.60
2018-08-03T02:26:43.538Z,53.60
2018-08-03T02:28:00.405Z,53.70
2018-08-03T02:29:17.385Z,53.70
2018-08-03T02:30:34.280Z,53.70
2018-08-03T02:31:51.052Z,53.80
2018-08-03T02:33:07.931Z,53.80
2018-08-03T02:34:24.680Z,53.80
2018-08-03T02:35:41.666Z,53.90
2018-08-03T02:36:58.530Z,53.90
2018-08-03T02:38:15.216Z,54.40
2018-08-03T02:39:31.761Z,53.90
2018-08-03T02:40:48.965Z,53.90
2018-08-03T02:42:06.449Z,53.90
2018-08-03T02:43:23.337Z,53.90
2018-08-03T02:44:40.089Z,53.90
2018-08-03T02:45:56.646Z,53.90
2018-08-03T02:47:14.185Z,53.90
2018-08-03T02:48:31.713Z,53.90
2018-08-03T02:49:48.612Z,54.00
2018-08-03T02:51:05.957Z,53.90
2018-08-03T02:52:23.309Z,53.90
2018-08-03T02:53:40.105Z,54.60
2018-08-03T02:54:57.033Z,53.90
2018-08-03T02:56:13.877Z,54.50
2018-08-03T02:57:30.700Z,53.90
2018-08-03T02:58:47.947Z,53.90
2018-08-03T03:00:04.808Z,53.90
2018-08-03T03:01:22.279Z,54.00
2018-08-03T03:02:39.448Z,53.40
2018-08-03T03:03:56.857Z,54.10
2018-08-03T03:05:13.669Z,54.10
2018-08-03T03:06:30.541Z,54.00
2018-08-03T03:07:47.430Z,54.00
2018-08-03T03:09:05.989Z,53.70
2018-08-03T03:10:23.160Z,54.20
2018-08-03T03:11:39.783Z,54.20
2018-08-03T03:12:56.304Z,54.30
2018-08-03T03:14:13.037Z,54.30
2018-08-03T03:15:29.804Z,54.30
2018-08-03T03:16:46.535Z,54.30
2018-08-03T03:18:03.109Z,55.00
2018-08-03T03:19:20.171Z,54.30
2018-08-03T03:20:37.118Z,54.30
2018-08-03T03:21:54.517Z,54.30
2018-08-03T03:23:11.004Z,54.40
2018-08-03T03:24:28.262Z,54.30
2018-08-03T03:25:45.026Z,54.30
2018-08-03T03:27:01.937Z,54.30
2018-08-03T03:28:18.921Z,54.30
2018-08-03T03:29:35.991Z,54.30
2018-08-03T03:32:09.849Z,54.30
2018-08-03T03:33:26.461Z,54.30
2018-08-03T03:34:43.553Z,54.30
2018-08-03T03:36:00.362Z,54.30
2018-08-03T03:37:17.585Z,54.30
2018-08-03T03:38:34.576Z,54.30
2018-08-03T03:39:51.558Z,54.30
2018-08-03T03:41:08.337Z,54.30
2018-08-03T03:42:25.103Z,54.30
2018-08-03T03:43:42.217Z,54.30
2018-08-03T03:44:59.029Z,54.30
2018-08-03T03:46:15.889Z,54.30
2018-08-03T03:47:32.538Z,54.30
2018-08-03T03:48:49.204Z,54.30
2018-08-03T03:50:06.608Z,54.30
2018-08-03T03:51:23.995Z,54.30
2018-08-03T03:52:40.597Z,54.30
2018-08-03T03:53:57.264Z,54.30
2018-08-03T03:55:14.363Z,55.00
2018-08-03T03:56:32.069Z,54.20
2018-08-03T03:57:48.717Z,54.30
2018-08-03T04:00:22.329Z,54.90
2018-08-03T04:01:39.233Z,54.20
2018-08-03T04:02:56.101Z,54.20
2018-08-03T04:04:12.945Z,54.30
2018-08-03T04:05:30.075Z,54.20
2018-08-03T04:06:47.440Z,54.00
2018-08-03T04:08:04.219Z,54.40
2018-08-03T04:09:21.112Z,54.50
2018-08-03T04:10:37.877Z,54.40
2018-08-03T04:11:54.779Z,54.50
2018-08-03T04:13:11.934Z,54.60
2018-08-03T04:14:28.584Z,54.70
2018-08-03T04:15:45.535Z,54.70
2018-08-03T04:17:02.382Z,54.80
2018-08-03T04:18:21.225Z,54.70
2018-08-03T04:19:38.232Z,54.70
2018-08-03T04:20:55.743Z,54.60
2018-08-03T04:22:12.753Z,54.60
2018-08-03T04:23:29.510Z,54.60
2018-08-03T04:24:46.313Z,54.50
2018-08-03T04:26:03.352Z,54.50
2018-08-03T04:27:20.252Z,54.50
2018-08-03T04:28:37.269Z,54.50
2018-08-03T04:29:54.361Z,54.50
2018-08-03T04:31:11.217Z,54.40
2018-08-03T04:32:27.869Z,54.30
2018-08-03T04:33:44.749Z,54.30
2018-08-03T04:35:01.574Z,54.20
2018-08-03T04:36:18.563Z,54.90
2018-08-03T04:37:35.237Z,54.40
2018-08-03T04:38:52.253Z,54.20
2018-08-03T04:41:25.867Z,54.20
2018-08-03T04:42:42.746Z,54.10
2018-08-03T04:43:59.990Z,54.10
2018-08-03T04:45:16.852Z,53.70
2018-08-03T04:46:33.717Z,54.10
2018-08-03T04:47:50.725Z,54.20
2018-08-03T04:49:07.636Z,54.10
2018-08-03T04:50:24.460Z,54.10
2018-08-03T04:51:42.033Z,54.20
2018-08-03T04:52:59.079Z,54.10
2018-08-03T04:54:15.997Z,54.10
2018-08-03T04:55:32.667Z,54.10
2018-08-03T04:56:49.649Z,54.80
2018-08-03T04:58:06.573Z,54.20
2018-08-03T04:59:23.424Z,54.10
2018-08-03T05:00:40.045Z,54.10
2018-08-03T05:01:56.784Z,54.10
2018-08-03T05:03:13.922Z,54.10
2018-08-03T05:04:30.311Z,54.10
2018-08-03T05:05:47.427Z,54.10
2018-08-03T05:07:04.820Z,54.10
2018-08-03T05:08:21.682Z,54.10
2018-08-03T05:09:38.638Z,54.10
2018-08-03T05:10:55.511Z,54.10
2018-08-03T05:13:29.122Z,54.10
2018-08-03T05:14:46.025Z,54.10
2018-08-03T05:16:02.881Z,54.10
2018-08-03T05:17:20.073Z,54.10
2018-08-03T05:18:37.716Z,54.10
2018-08-03T05:19:54.348Z,54.70
2018-08-03T05:21:12.000Z,54.10
2018-08-03T05:22:28.736Z,54.10
2018-08-03T05:23:45.648Z,54.10
2018-08-03T05:25:02.532Z,54.10
2018-08-03T05:26:19.907Z,53.90
2018-08-03T05:27:37.236Z,54.10
2018-08-03T05:28:55.193Z,54.10
2018-08-03T05:30:12.126Z,54.10
2018-08-03T05:31:28.772Z,54.10
2018-08-03T05:32:45.688Z,54.70
2018-08-03T05:34:02.637Z,54.10
2018-08-03T05:35:19.466Z,54.10
2018-08-03T05:36:36.512Z,54.10
2018-08-03T05:37:53.182Z,54.10
2018-08-03T05:39:11.216Z,54.10
2018-08-03T05:40:28.488Z,54.10
2018-08-03T05:41:45.712Z,54.10
2018-08-03T05:43:02.765Z,54.70
2018-08-03T05:44:19.936Z,54.10
2018-08-03T05:45:37.570Z,54.10
2018-08-03T05:46:54.601Z,54.50
2018-08-03T05:48:11.635Z,54.00
2018-08-03T05:49:28.508Z,54.10
2018-08-03T05:50:45.396Z,54.70
2018-08-03T05:52:02.365Z,54.00
2018-08-03T05:53:19.175Z,55.00
2018-08-03T05:54:36.152Z,54.10
2018-08-03T05:55:53.008Z,54.20
2018-08-03T05:57:09.896Z,54.20
2018-08-03T05:58:27.108Z,55.00
2018-08-03T05:59:44.189Z,54.50
2018-08-03T06:01:01.118Z,54.30
2018-08-03T06:02:18.261Z,54.50
2018-08-03T06:03:35.220Z,54.60
2018-08-03T06:04:52.336Z,54.60
2018-08-03T06:06:09.322Z,54.60
2018-08-03T06:07:26.124Z,54.60
2018-08-03T06:08:43.346Z,54.60
2018-08-03T06:09:59.956Z,54.60
2018-08-03T06:11:17.197Z,55.40
2018-08-03T06:12:34.816Z,54.70
2018-08-03T06:13:51.544Z,54.70
2018-08-03T06:15:09.605Z,54.80
2018-08-03T06:16:26.112Z,54.70
2018-08-03T06:17:42.814Z,54.80
2018-08-03T06:18:59.329Z,54.70
2018-08-03T06:20:15.974Z,54.70
2018-08-03T06:21:32.816Z,54.70
2018-08-03T06:22:50.625Z,54.60
2018-08-03T06:24:08.053Z,54.70
2018-08-03T06:25:25.224Z,54.60
2018-08-03T06:26:41.808Z,54.70
2018-08-03T06:27:58.737Z,54.70
2018-08-03T06:29:16.243Z,54.70
2018-08-03T06:30:33.369Z,54.70
2018-08-03T06:31:50.293Z,54.70
2018-08-03T06:33:07.209Z,54.80
2018-08-03T06:34:23.804Z,54.80
2018-08-03T06:35:40.573Z,54.80
2018-08-03T06:36:57.401Z,54.80
2018-08-03T06:38:14.525Z,54.90
2018-08-03T06:39:31.967Z,54.80
2018-08-03T06:40:48.820Z,54.90
2018-08-03T06:42:05.843Z,54.30
2018-08-03T06:43:22.618Z,54.80
2018-08-03T06:45:55.757Z,54.90
2018-08-03T06:47:12.311Z,55.00
2018-08-03T06:48:29.449Z,54.80
2018-08-03T06:49:46.001Z,55.00
2018-08-03T06:51:03.090Z,54.80
2018-08-03T06:52:20.005Z,54.90
2018-08-03T06:53:37.011Z,54.80
2018-08-03T06:54:54.240Z,54.80
2018-08-03T06:56:11.821Z,54.70
2018-08-03T06:57:28.980Z,54.70
2018-08-03T06:58:46.113Z,54.70
2018-08-03T07:00:02.944Z,54.60
2018-08-03T07:02:37.196Z,54.50
2018-08-03T07:03:54.025Z,54.50
2018-08-03T07:05:10.781Z,54.50
2018-08-03T07:06:28.085Z,54.60
2018-08-03T07:07:44.975Z,54.50
2018-08-03T07:09:02.641Z,54.40
2018-08-03T07:10:19.445Z,54.50
2018-08-03T07:11:36.637Z,54.60
2018-08-03T07:12:54.432Z,54.40
2018-08-03T07:14:11.232Z,54.50
2018-08-03T07:16:44.521Z,54.40
2018-08-03T07:18:01.443Z,54.50
2018-08-03T07:19:18.439Z,53.90
2018-08-03T07:20:35.197Z,54.50
2018-08-03T07:21:52.273Z,54.50
2018-08-03T07:23:09.049Z,54.70
2018-08-03T07:24:26.570Z,55.30
2018-08-03T07:25:43.665Z,54.70
2018-08-03T07:27:01.268Z,54.80
2018-08-03T07:28:18.165Z,54.80
2018-08-03T07:29:35.593Z,54.80
2018-08-03T07:30:52.488Z,54.80
2018-08-03T07:32:09.057Z,54.90
2018-08-03T07:33:25.783Z,54.80
2018-08-03T07:34:42.881Z,54.70
2018-08-03T07:35:59.920Z,54.70
2018-08-03T07:37:16.722Z,54.70
2018-08-03T07:38:33.289Z,54.80
2018-08-03T07:39:50.005Z,55.50
2018-08-03T07:41:06.971Z,54.80
2018-08-03T07:42:23.924Z,54.80
2018-08-03T07:43:40.902Z,54.80
2018-08-03T07:44:57.820Z,54.70
2018-08-03T07:46:14.857Z,54.60
2018-08-03T07:47:31.639Z,54.60
2018-08-03T07:48:49.297Z,54.80
2018-08-03T07:50:05.938Z,54.60
2018-08-03T07:51:22.681Z,54.70
2018-08-03T07:52:39.488Z,54.70
2018-08-03T07:53:56.021Z,54.60
2018-08-03T07:55:13.041Z,54.70
2018-08-03T07:56:29.961Z,54.70
2018-08-03T07:57:46.847Z,54.80
2018-08-03T07:59:03.471Z,54.90
2018-08-03T08:00:20.198Z,54.80
2018-08-03T08:01:36.866Z,54.80
2018-08-03T08:02:53.687Z,54.80
2018-08-03T08:04:10.524Z,55.20
2018-08-03T08:05:27.247Z,55.60
2018-08-03T08:06:44.124Z,54.90
2018-08-03T08:08:01.850Z,55.00
2018-08-03T08:09:18.572Z,54.90
2018-08-03T08:10:35.454Z,54.80
2018-08-03T08:11:52.583Z,54.80
2018-08-03T08:13:09.358Z,54.80
2018-08-03T08:14:26.207Z,54.70
2018-08-03T08:15:43.221Z,54.70
2018-08-03T08:17:00.288Z,54.90
2018-08-03T08:18:16.961Z,54.70
2018-08-03T08:19:33.647Z,54.80
2018-08-03T08:20:50.193Z,54.80
2018-08-03T08:22:07.412Z,54.70
2018-08-03T08:23:24.249Z,54.80
2018-08-03T08:24:41.415Z,55.30
2018-08-03T08:25:58.763Z,54.70
2018-08-03T08:27:15.547Z,54.60
2018-08-03T08:28:32.312Z,54.60
2018-08-03T08:29:49.310Z,54.50
2018-08-03T08:31:06.380Z,54.50
2018-08-03T08:32:23.114Z,54.00
2018-08-03T08:33:40.076Z,54.40
2018-08-03T08:34:56.958Z,54.50
2018-08-03T08:36:14.025Z,54.60
2018-08-03T08:37:30.709Z,55.30
2018-08-03T08:38:47.286Z,54.40
2018-08-03T08:40:04.787Z,54.50
2018-08-03T08:41:22.152Z,54.60
2018-08-03T08:42:38.848Z,55.30
2018-08-03T08:43:55.531Z,54.50
2018-08-03T08:45:12.273Z,54.50
2018-08-03T08:46:29.077Z,54.50
2018-08-03T08:47:46.062Z,54.60
2018-08-03T08:49:04.023Z,54.50
2018-08-03T08:50:21.532Z,54.40
2018-08-03T08:51:38.316Z,54.50
2018-08-03T08:52:55.370Z,54.30
2018-08-03T08:54:12.182Z,54.20
2018-08-03T08:55:28.830Z,54.40
2018-08-03T08:56:45.312Z,54.40
2018-08-03T08:58:02.384Z,54.30
2018-08-03T08:59:19.196Z,54.20
2018-08-03T09:00:37.125Z,54.50
2018-08-03T09:01:54.835Z,54.30
2018-08-03T09:03:12.261Z,54.40
2018-08-03T09:04:29.189Z,54.40
2018-08-03T09:05:46.827Z,54.20
2018-08-03T09:07:03.944Z,54.30
2018-08-03T09:08:20.812Z,54.30
2018-08-03T09:09:37.705Z,54.30
2018-08-03T09:10:55.349Z,54.80
2018-08-03T09:12:12.118Z,54.20
2018-08-03T09:13:29.031Z,54.30
2018-08-03T09:14:45.996Z,54.30
2018-08-03T09:16:02.750Z,54.30
2018-08-03T09:17:20.000Z,54.30
2018-08-03T09:18:37.109Z,54.30
2018-08-03T09:19:53.776Z,54.90
2018-08-03T09:21:10.593Z,54.30
2018-08-03T09:22:27.505Z,54.30
2018-08-03T09:23:44.649Z,54.70
2018-08-03T09:25:01.488Z,54.30
2018-08-03T09:26:18.517Z,54.30
2018-08-03T09:27:36.089Z,54.30
2018-08-03T09:28:53.098Z,54.90
2018-08-03T09:30:10.389Z,54.30
2018-08-03T09:31:28.074Z,54.30
2018-08-03T09:32:45.070Z,54.30
2018-08-03T09:34:02.128Z,54.40
2018-08-03T09:36:35.403Z,54.30
2018-08-03T09:39:09.833Z,54.80
2018-08-03T09:40:26.704Z,54.20
2018-08-03T09:41:43.660Z,54.20
2018-08-03T09:43:00.411Z,54.30
2018-08-03T09:44:17.152Z,54.10
2018-08-03T09:45:33.868Z,53.60
2018-08-03T09:46:50.541Z,54.00
2018-08-03T09:48:07.536Z,53.90
2018-08-03T09:49:24.279Z,53.80
2018-08-03T09:50:41.072Z,53.70
2018-08-03T09:51:58.285Z,54.00
2018-08-03T09:53:15.776Z,53.60
2018-08-03T09:54:32.892Z,53.50
2018-08-03T09:55:49.532Z,53.50
2018-08-03T09:57:06.136Z,53.50
2018-08-03T09:58:23.720Z,53.40
2018-08-03T09:59:41.020Z,53.30
2018-08-03T10:02:18.464Z,53.30
2018-08-03T10:03:35.174Z,53.20
2018-08-03T10:04:52.047Z,53.20
2018-08-03T10:06:09.508Z,53.10
2018-08-03T10:07:26.764Z,53.10
2018-08-03T10:08:43.563Z,53.00
2018-08-03T10:10:00.673Z,53.00
2018-08-03T10:11:18.008Z,53.00
2018-08-03T10:12:34.844Z,52.90
2018-08-03T10:13:51.876Z,53.60
2018-08-03T10:15:09.472Z,52.80
2018-08-03T10:16:27.092Z,52.80
2018-08-03T10:17:44.079Z,52.80
2018-08-03T10:19:01.556Z,52.80
2018-08-03T10:20:18.344Z,52.70
2018-08-03T10:21:35.341Z,53.00
2018-08-03T10:22:52.631Z,52.60
2018-08-03T10:24:10.459Z,52.60
2018-08-03T10:25:27.142Z,52.60
2018-08-03T10:26:44.204Z,53.20
2018-08-03T10:28:00.868Z,52.50
2018-08-03T10:29:18.676Z,52.50
2018-08-03T10:30:36.058Z,52.30
2018-08-03T10:31:52.978Z,52.20
2018-08-03T10:33:09.954Z,52.30
2018-08-03T10:34:26.770Z,52.40
2018-08-03T10:35:43.698Z,52.30
2018-08-03T10:37:00.546Z,52.30
2018-08-03T10:38:17.825Z,52.30
2018-08-03T10:39:35.398Z,52.30
2018-08-03T10:40:52.349Z,52.30
2018-08-03T10:42:09.088Z,52.10
2018-08-03T10:43:25.953Z,52.10
2018-08-03T10:44:42.856Z,52.10
2018-08-03T10:46:00.215Z,52.00
2018-08-03T10:47:17.196Z,52.00
2018-08-03T10:48:33.785Z,52.10
2018-08-03T10:49:50.612Z,52.00
2018-08-03T10:51:07.793Z,52.00
2018-08-03T10:52:24.860Z,51.90
2018-08-03T10:53:41.900Z,51.80
2018-08-03T10:54:58.688Z,52.40
2018-08-03T10:56:15.264Z,51.80
2018-08-03T10:57:32.165Z,51.40
2018-08-03T10:58:49.767Z,51.50
2018-08-03T11:00:07.185Z,51.60
2018-08-03T11:01:24.507Z,50.90
2018-08-03T11:02:41.099Z,51.20
2018-08-03T11:03:57.842Z,50.90
2018-08-03T11:05:14.784Z,50.60
2018-08-03T11:06:32.424Z,51.60
2018-08-03T11:07:49.532Z,51.10
2018-08-03T11:09:07.897Z,51.70
2018-08-03T11:10:24.914Z,51.00
2018-08-03T11:11:41.759Z,50.00
2018-08-03T11:12:58.703Z,50.40
2018-08-03T11:14:15.304Z,50.50
2018-08-03T11:15:32.012Z,50.30
2018-08-03T11:16:48.869Z,50.40
2018-08-03T11:18:05.741Z,50.50
2018-08-03T11:19:23.684Z,49.90
2018-08-03T11:20:41.137Z,49.30
2018-08-03T11:21:58.186Z,49.90
2018-08-03T11:23:15.117Z,49.50
2018-08-03T11:24:31.740Z,49.90
2018-08-03T11:25:48.812Z,49.60
2018-08-03T11:27:06.109Z,49.10
2018-08-03T11:28:23.643Z,49.30
2018-08-03T11:29:40.995Z,49.30
2018-08-03T11:30:58.012Z,48.80
2018-08-03T11:32:14.803Z,47.60
2018-08-03T11:33:31.670Z,47.90
2018-08-03T11:34:48.225Z,48.60
2018-08-03T11:36:05.209Z,48.40
2018-08-03T11:37:22.341Z,48.10
2018-08-03T11:38:39.073Z,48.20
2018-08-03T11:39:55.837Z,48.20
2018-08-03T11:41:13.729Z,47.60
2018-08-03T11:42:31.252Z,48.00
2018-08-03T11:43:47.776Z,47.40
2018-08-03T11:45:06.231Z,46.90
2018-08-03T11:46:23.628Z,47.30
2018-08-03T11:47:40.805Z,46.30
2018-08-03T11:48:58.253Z,46.70
2018-08-03T11:50:15.070Z,46.60
2018-08-03T11:51:32.032Z,46.80
2018-08-03T11:52:48.848Z,46.80
2018-08-03T11:54:05.910Z,46.10
2018-08-03T11:55:22.764Z,45.20
2018-08-03T11:56:39.496Z,45.00
2018-08-03T11:57:56.054Z,45.80
2018-08-03T11:59:12.860Z,45.00
2018-08-03T12:00:29.822Z,45.40
2018-08-03T12:01:47.538Z,45.90
2018-08-03T12:03:04.227Z,45.80
2018-08-03T12:04:21.265Z,45.70
2018-08-03T12:05:37.850Z,45.70
2018-08-03T12:06:54.818Z,45.70
2018-08-03T12:08:11.752Z,45.50
2018-08-03T12:09:29.131Z,45.30
2018-08-03T12:10:46.090Z,45.10
2018-08-03T12:12:02.782Z,45.00
2018-08-03T12:13:19.632Z,45.20
2018-08-03T12:14:36.413Z,44.80
2018-08-03T12:15:53.152Z,44.40
2018-08-03T12:17:10.170Z,44.40
2018-08-03T12:18:27.037Z,44.40
2018-08-03T12:19:43.800Z,44.40
2018-08-03T12:21:00.626Z,44.40
2018-08-03T12:22:17.697Z,44.40
2018-08-03T12:23:34.268Z,45.00
2018-08-03T12:24:51.314Z,44.50
2018-08-03T12:26:08.690Z,44.50
2018-08-03T12:27:25.662Z,44.50
2018-08-03T12:28:42.530Z,44.10
2018-08-03T12:29:59.306Z,43.90
2018-08-03T12:31:16.217Z,43.70
2018-08-03T12:32:33.607Z,44.30
2018-08-03T12:33:50.633Z,43.40
2018-08-03T12:35:07.337Z,44.00
2018-08-03T12:36:24.377Z,43.20
2018-08-03T12:37:41.156Z,43.10
2018-08-03T12:38:58.089Z,43.00
2018-08-03T12:40:15.589Z,43.00
2018-08-03T12:41:32.347Z,42.90
2018-08-03T12:42:48.899Z,42.80
2018-08-03T12:44:05.736Z,42.50
2018-08-03T12:45:22.356Z,42.40
2018-08-03T12:46:39.528Z,42.10
2018-08-03T12:47:56.327Z,42.30
2018-08-03T12:49:13.429Z,42.40
2018-08-03T12:50:30.924Z,42.20
2018-08-03T12:51:47.692Z,41.90
2018-08-03T12:53:04.724Z,41.80
2018-08-03T12:54:21.684Z,41.40
2018-08-03T12:55:38.604Z,41.40
2018-08-03T12:56:55.732Z,41.50
2018-08-03T12:58:13.209Z,41.50
2018-08-03T12:59:30.271Z,41.20
2018-08-03T13:00:46.872Z,41.10
2018-08-03T13:02:03.719Z,40.70
2018-08-03T13:03:21.292Z,40.80
2018-08-03T13:04:38.139Z,40.60
2018-08-03T13:05:55.037Z,40.50
2018-08-03T13:07:12.687Z,40.80
2018-08-03T13:08:29.585Z,40.60
2018-08-03T13:09:46.097Z,40.30
2018-08-03T13:11:02.756Z,40.00
2018-08-03T13:12:19.550Z,39.60
2018-08-03T13:13:36.253Z,40.30
2018-08-03T13:14:53.273Z,40.20
2018-08-03T13:16:11.157Z,39.90
2018-08-03T13:17:28.566Z,39.80
2018-08-03T13:18:45.377Z,39.70
2018-08-03T13:20:02.157Z,39.70
2018-08-03T13:21:30.205Z,39.50
2018-08-03T13:22:47.661Z,39.50
2018-08-03T13:24:04.766Z,39.20
2018-08-03T13:25:22.537Z,39.30
2018-08-03T13:26:39.217Z,39.50
2018-08-03T13:27:56.037Z,39.70
2018-08-03T13:29:12.753Z,39.30
2018-08-03T13:30:29.393Z,39.00
2018-08-03T13:31:46.040Z,38.80
2018-08-03T13:33:02.837Z,39.30
2018-08-03T13:34:19.633Z,38.80
2018-08-03T13:35:37.433Z,38.80
2018-08-03T13:38:10.754Z,38.70
2018-08-03T13:39:27.737Z,39.60
2018-08-03T13:40:44.609Z,38.40
2018-08-03T13:42:02.077Z,38.10
2018-08-03T13:43:19.184Z,38.80
2018-08-03T13:44:35.842Z,38.00
2018-08-03T13:45:52.638Z,37.70
2018-08-03T13:47:10.248Z,37.80
2018-08-03T13:48:27.204Z,37.90
2018-08-03T13:49:43.972Z,37.70
2018-08-03T13:51:00.483Z,37.50
2018-08-03T13:52:17.724Z,37.80
2018-08-03T13:53:35.328Z,36.70
2018-08-03T13:54:52.081Z,37.10
2018-08-03T13:56:09.593Z,36.90
2018-08-03T13:57:26.773Z,37.30
2018-08-03T13:58:44.863Z,37.30
2018-08-03T14:00:02.114Z,37.00
2018-08-03T14:01:30.046Z,37.10
2018-08-03T14:02:46.632Z,36.60
2018-08-03T14:04:03.609Z,36.40
2018-08-03T14:05:20.383Z,36.80
2018-08-03T14:06:37.598Z,36.70
2018-08-03T14:07:55.205Z,36.80
2018-08-03T14:09:13.617Z,36.80
2018-08-03T14:10:30.582Z,36.50
2018-08-03T14:11:47.407Z,36.40
2018-08-03T14:13:05.129Z,36.40
2018-08-03T14:14:22.898Z,36.10
2018-08-03T14:15:40.372Z,36.10
2018-08-03T14:16:57.485Z,36.00
2018-08-03T14:18:14.107Z,36.50
2018-08-03T14:19:31.497Z,36.20
2018-08-03T14:20:48.169Z,36.00
2018-08-03T14:22:05.585Z,36.80
2018-08-03T14:23:22.628Z,36.00
2018-08-03T14:24:39.729Z,35.60
2018-08-03T14:25:56.940Z,36.10
2018-08-03T14:27:13.629Z,35.40
2018-08-03T14:28:30.760Z,35.20
2018-08-03T14:31:04.317Z,35.30
2018-08-03T14:32:21.002Z,35.40
2018-08-03T14:33:38.014Z,35.10
2018-08-03T14:34:55.195Z,35.80
2018-08-03T14:36:12.703Z,35.10
2018-08-03T14:37:29.542Z,35.10
2018-08-03T14:38:46.158Z,35.10
2018-08-03T14:40:03.038Z,35.10
2018-08-03T14:41:20.548Z,35.10
2018-08-03T14:42:37.345Z,35.30
2018-08-03T14:43:53.976Z,35.20
2018-08-03T14:45:10.755Z,35.10
2018-08-03T14:46:28.385Z,35.20
2018-08-03T14:47:45.295Z,35.20
2018-08-03T14:49:02.718Z,34.40
2018-08-03T14:50:19.416Z,34.80
2018-08-03T14:51:36.683Z,35.10
2018-08-03T14:52:54.093Z,35.20
2018-08-03T14:54:10.815Z,34.60
2018-08-03T14:55:27.716Z,34.80
2018-08-03T14:56:44.659Z,34.90
2018-08-03T14:58:01.352Z,35.20
2018-08-03T14:59:18.384Z,35.00
2018-08-03T15:00:35.777Z,35.30
2018-08-03T15:01:52.776Z,34.60
2018-08-03T15:03:10.052Z,34.70
2018-08-03T15:04:27.653Z,35.00
2018-08-03T15:05:45.591Z,34.90
2018-08-03T15:07:02.720Z,35.00
2018-08-03T15:08:19.878Z,34.90
2018-08-03T15:09:37.267Z,35.40
2018-08-03T15:10:54.157Z,35.00
2018-08-03T15:12:10.931Z,35.40
2018-08-03T15:13:27.879Z,35.40
2018-08-03T15:14:44.885Z,34.90
2018-08-03T15:16:01.772Z,35.20
2018-08-03T15:17:18.553Z,35.30
2018-08-03T15:18:35.539Z,35.10
2018-08-03T15:19:53.120Z,34.70
2018-08-03T15:21:09.869Z,34.70
2018-08-03T15:22:26.669Z,34.50
2018-08-03T15:23:43.658Z,34.70
2018-08-03T15:25:00.268Z,34.10
2018-08-03T15:26:16.946Z,34.10
2018-08-03T15:27:34.053Z,34.20
2018-08-03T15:28:51.016Z,34.30
2018-08-03T15:30:09.093Z,33.90
2018-08-03T15:31:26.726Z,34.10
2018-08-03T15:32:43.517Z,34.10
2018-08-03T15:34:00.172Z,34.30
2018-08-03T15:35:17.035Z,34.20
2018-08-03T15:36:33.913Z,34.30
2018-08-03T15:37:50.962Z,34.10
2018-08-03T15:39:09.240Z,34.00
2018-08-03T15:40:26.776Z,34.20
2018-08-03T15:41:44.455Z,34.20
2018-08-03T15:43:01.109Z,34.30
2018-08-03T15:44:17.749Z,34.30
2018-08-03T15:45:34.671Z,34.10
2018-08-03T15:46:51.241Z,34.10
2018-08-03T15:48:08.212Z,34.20
2018-08-03T15:49:25.121Z,34.00
2018-08-03T15:50:43.397Z,33.90
2018-08-03T15:52:00.614Z,33.90
2018-08-03T15:53:17.725Z,34.00
2018-08-03T15:54:35.444Z,34.00
2018-08-03T15:55:53.074Z,34.50
2018-08-03T15:57:09.958Z,33.90
2018-08-03T15:58:27.001Z,34.00
2018-08-03T15:59:43.800Z,34.10
2018-08-03T16:01:00.563Z,34.00
2018-08-03T16:02:17.330Z,33.90
2018-08-03T16:03:33.812Z,33.70
2018-08-03T16:04:50.749Z,33.60
2018-08-03T16:06:07.875Z,33.90
2018-08-03T16:07:24.433Z,34.70
2018-08-03T16:08:41.108Z,33.50
2018-08-03T16:09:57.880Z,33.50
2018-08-03T16:11:14.937Z,33.70
2018-08-03T16:12:31.827Z,33.80
2018-08-03T16:13:49.336Z,33.80
2018-08-03T16:15:06.468Z,32.70
2018-08-03T16:16:23.944Z,33.10
2018-08-03T16:17:40.781Z,33.50
2018-08-03T16:18:57.677Z,33.40
2018-08-03T16:20:14.529Z,33.70
2018-08-03T16:21:31.964Z,33.00
2018-08-03T16:22:49.033Z,33.10
2018-08-03T16:24:06.596Z,33.40
2018-08-03T16:25:23.452Z,32.80
2018-08-03T16:26:40.392Z,33.30
2018-08-03T16:27:57.193Z,33.10
2018-08-03T16:29:13.801Z,33.20
2018-08-03T16:30:30.704Z,33.70
2018-08-03T16:31:47.639Z,32.90
2018-08-03T16:33:04.536Z,33.10
2018-08-03T16:34:21.420Z,33.20
2018-08-03T16:35:38.195Z,33.80
2018-08-03T16:36:54.794Z,33.20
2018-08-03T16:38:11.843Z,33.10
2018-08-03T16:39:28.901Z,33.70
2018-08-03T16:42:02.797Z,33.30
2018-08-03T16:43:20.258Z,33.10
2018-08-03T16:44:37.560Z,33.00
2018-08-03T16:45:54.453Z,32.70
2018-08-03T16:47:11.225Z,32.80
2018-08-03T16:48:27.888Z,33.10
2018-08-03T16:49:44.893Z,33.40